This is the latest recevied weather packets stored in our database for station/object EA2BK-11. If no packets are shown the sender has not sent any weather packets the latest 10 day(s).
| Time | Temp. | Humidity | Pressure | Rain* | Wind** | Luminosity | Snow |
|---|---|---|---|---|---|---|---|
| 1777800115 | 18.33° C | 67% | 946 hPa | - | - | - | - |
| 1777799210 | 18.33° C | 68% | 946 hPa | - | - | - | - |
| 1777798305 | 18.89° C | 67% | 946 hPa | - | - | - | - |
| 1777797400 | 17.78° C | 69% | 946 hPa | - | - | - | - |
| 1777796495 | 16.67° C | 70% | 946 hPa | - | - | - | - |
| 1777795589 | 15.56° C | 73% | 946 hPa | - | - | - | - |
| 1777794685 | 15° C | 74% | 946 hPa | - | - | - | - |
| 1777793779 | 15° C | 74% | 946 hPa | - | - | - | - |
| 1777792874 | 15° C | 74% | 946 hPa | - | - | - | - |
| 1777791969 | 15° C | 74% | 946 hPa | - | - | - | - |
| 1777791064 | 14.44° C | 75% | 946 hPa | - | - | - | - |
| 1777790160 | 14.44° C | 76% | 946 hPa | - | - | - | - |
| 1777789253 | 14.44° C | 76% | 946 hPa | - | - | - | - |
| 1777788348 | 14.44° C | 74% | 946 hPa | - | - | - | - |
| 1777787443 | 15° C | 74% | 946 hPa | - | - | - | - |
| 1777786538 | 15° C | 74% | 946 hPa | - | - | - | - |
| 1777785632 | 14.44° C | 74% | 946 hPa | - | - | - | - |
| 1777784727 | 14.44° C | 74% | 946 hPa | - | - | - | - |
| 1777783822 | 14.44° C | 75% | 946 hPa | - | - | - | - |
| 1777782917 | 13.89° C | 75% | 946 hPa | - | - | - | - |
| 1777782012 | 13.89° C | 76% | 946 hPa | - | - | - | - |
| 1777781107 | 13.89° C | 76% | 946 hPa | - | - | - | - |
| 1777780201 | 13.89° C | 76% | 946 hPa | - | - | - | - |
| 1777779296 | 13.89° C | 76% | 946 hPa | - | - | - | - |
| 1777778391 | 14.44° C | 75% | 946 hPa | - | - | - | - |
* Rain since midnight (hover to see other rain measurements)
** Current wind speed in m/s (hover to see current wind gust speed)